createdAt,value
2018-10-06T00:00:53.165Z,97896.55
2018-10-06T00:03:22.550Z,97930.33
2018-10-06T00:05:52.006Z,97954.84
2018-10-06T00:08:21.369Z,97958.21
2018-10-06T00:10:50.821Z,97972.16
2018-10-06T00:13:20.375Z,98002.59
2018-10-06T00:15:49.778Z,98003.86
2018-10-06T00:18:19.152Z,98009.33
2018-10-06T00:20:48.640Z,98016.95
2018-10-06T00:23:18.018Z,98026.67
2018-10-06T00:25:47.410Z,98052.91
2018-10-06T00:28:16.837Z,98068.74
2018-10-06T00:30:46.252Z,98111.55
2018-10-06T00:33:15.619Z,98111.23
2018-10-06T00:35:45.037Z,98099.86
2018-10-06T00:38:14.450Z,98082.13
2018-10-06T00:40:43.821Z,98069.43
2018-10-06T00:43:13.202Z,98152.22
2018-10-06T00:45:42.647Z,98185.16
2018-10-06T00:48:12.115Z,98191.08
2018-10-06T00:50:41.663Z,98209.23
2018-10-06T00:53:11.055Z,98206.73
2018-10-06T00:55:40.466Z,98210.52
2018-10-06T00:58:09.877Z,98211.38
2018-10-06T01:00:39.291Z,98204.59
2018-10-06T01:03:08.680Z,98213.47
2018-10-06T01:05:38.053Z,98213.48
2018-10-06T01:08:07.439Z,98209.25
2018-10-06T01:10:36.917Z,98215.17
2018-10-06T01:13:06.303Z,98213.04
2018-10-06T01:15:35.830Z,98207.95
2018-10-06T01:18:05.218Z,98203.31
2018-10-06T01:20:34.728Z,98203.30
2018-10-06T01:23:04.111Z,98195.28
2018-10-06T01:25:33.609Z,98188.55
2018-10-06T01:28:03.570Z,98189.38
2018-10-06T01:30:33.005Z,98187.70
2018-10-06T01:33:02.399Z,98192.77
2018-10-06T01:35:31.833Z,98179.25
2018-10-06T01:38:01.211Z,98186.00
2018-10-06T01:40:30.613Z,98183.06
2018-10-06T01:43:00.006Z,98181.36
2018-10-06T01:45:29.455Z,98178.42
2018-10-06T01:47:58.858Z,98178.42
2018-10-06T01:50:28.374Z,98177.97
2018-10-06T01:52:57.735Z,98176.69
2018-10-06T01:55:27.172Z,98173.69
2018-10-06T01:57:56.522Z,98179.14
2018-10-06T02:00:25.920Z,98174.48
2018-10-06T02:02:55.290Z,98164.81
2018-10-06T02:05:24.768Z,98169.90
2018-10-06T02:07:54.384Z,98170.30
2018-10-06T02:10:23.913Z,98165.23
2018-10-06T02:12:53.322Z,98161.83
2018-10-06T02:15:22.807Z,98158.41
2018-10-06T02:17:52.238Z,98158.81
2018-10-06T02:20:21.693Z,98154.21
2018-10-06T02:22:51.129Z,98149.58
2018-10-06T02:25:20.659Z,98141.19
2018-10-06T02:27:50.067Z,98143.32
2018-10-06T02:30:19.630Z,98133.59
2018-10-06T02:32:49.034Z,98125.56
2018-10-06T02:35:18.577Z,98129.33
2018-10-06T02:37:48.031Z,98131.05
2018-10-06T02:40:17.571Z,98127.28
2018-10-06T02:42:46.981Z,98126.86
2018-10-06T02:45:16.445Z,98123.42
2018-10-06T02:47:45.880Z,98127.97
2018-10-06T02:50:15.338Z,98128.83
2018-10-06T02:52:44.711Z,98132.21
2018-10-06T02:55:14.143Z,98128.39
2018-10-06T02:57:43.550Z,98132.19
2018-10-06T03:00:13.003Z,98124.63
2018-10-06T03:02:42.399Z,98120.40
2018-10-06T03:05:11.975Z,98120.81
2018-10-06T03:07:41.411Z,98117.89
2018-10-06T03:10:10.898Z,98113.63
2018-10-06T03:12:40.343Z,98112.30
2018-10-06T03:15:09.806Z,98112.77
2018-10-06T03:17:39.201Z,98108.11
2018-10-06T03:20:08.709Z,98110.63
2018-10-06T03:22:38.113Z,98106.86
2018-10-06T03:25:07.633Z,98119.09
2018-10-06T03:27:37.026Z,98120.38
2018-10-06T03:30:07.142Z,98121.23
2018-10-06T03:32:36.614Z,98123.33
2018-10-06T03:35:06.434Z,98121.22
2018-10-06T03:37:35.960Z,98122.92
2018-10-06T03:40:05.381Z,98122.47
2018-10-06T03:42:34.969Z,98128.36
2018-10-06T03:45:04.353Z,98127.94
2018-10-06T03:47:33.879Z,98132.95
2018-10-06T03:50:03.310Z,98131.27
2018-10-06T03:52:32.798Z,98128.73
2018-10-06T03:55:02.243Z,98126.27
2018-10-06T03:57:31.869Z,98125.81
2018-10-06T04:00:01.286Z,98130.88
2018-10-06T04:02:30.695Z,98128.28
2018-10-06T04:05:00.096Z,98130.09
2018-10-06T04:07:29.622Z,98127.22
2018-10-06T04:09:59.065Z,98123.80
2018-10-06T04:12:28.533Z,98109.05
2018-10-06T04:14:57.937Z,98101.92
2018-10-06T04:17:27.408Z,98099.39
2018-10-06T04:19:56.817Z,98099.39
2018-10-06T04:22:26.293Z,98107.82
2018-10-06T04:24:55.692Z,98111.65
2018-10-06T04:27:25.139Z,98115.42
2018-10-06T04:29:54.541Z,98109.10
2018-10-06T04:32:24.017Z,98112.04
2018-10-06T04:34:53.455Z,98105.33
2018-10-06T04:37:22.877Z,98107.85
2018-10-06T04:39:52.261Z,98111.59
2018-10-06T04:42:21.765Z,98115.37
2018-10-06T04:44:51.177Z,98117.83
2018-10-06T04:47:20.646Z,98113.55
2018-10-06T04:49:50.133Z,98117.33
2018-10-06T04:52:19.545Z,98117.53
2018-10-06T04:54:48.938Z,98117.11
2018-10-06T04:57:18.350Z,98121.75
2018-10-06T04:59:47.750Z,98124.81
2018-10-06T05:02:17.145Z,98135.83
2018-10-06T05:04:46.552Z,98140.44
2018-10-06T05:07:15.983Z,98145.51
2018-10-06T05:09:45.428Z,98148.84
2018-10-06T05:12:14.806Z,98148.36
2018-10-06T05:14:44.255Z,98151.23
2018-10-06T05:17:13.638Z,98147.45
2018-10-06T05:19:43.190Z,98143.52
2018-10-06T05:22:12.579Z,98148.56
2018-10-06T05:24:42.073Z,98152.27
2018-10-06T05:27:11.475Z,98156.48
2018-10-06T05:29:40.870Z,98156.52
2018-10-06T05:32:10.337Z,98156.86
2018-10-06T05:34:39.782Z,98156.47
2018-10-06T05:37:09.173Z,98153.36
2018-10-06T05:39:38.561Z,98151.65
2018-10-06T05:42:08.008Z,98152.88
2018-10-06T05:44:37.401Z,98153.33
2018-10-06T05:47:06.920Z,98157.93
2018-10-06T05:49:36.292Z,98152.44
2018-10-06T05:52:05.893Z,98152.09
2018-10-06T05:54:35.262Z,98158.05
2018-10-06T05:57:04.678Z,98155.20
2018-10-06T05:59:34.041Z,98157.30
2018-10-06T06:02:03.575Z,98152.25
2018-10-06T06:04:32.938Z,98151.50
2018-10-06T06:07:02.403Z,98143.23
2018-10-06T06:09:31.773Z,98149.95
2018-10-06T06:12:01.219Z,98146.65
2018-10-06T06:14:30.579Z,98152.17
2018-10-06T06:17:00.001Z,98161.84
2018-10-06T06:19:29.381Z,98156.08
2018-10-06T06:21:58.855Z,98153.83
2018-10-06T06:24:28.218Z,98159.71
2018-10-06T06:26:57.623Z,98164.85
2018-10-06T06:29:27.006Z,98167.05
2018-10-06T06:31:56.522Z,98161.65
2018-10-06T06:34:25.904Z,98174.48
2018-10-06T06:36:55.323Z,98167.88
2018-10-06T06:39:24.678Z,98162.08
2018-10-06T06:41:54.167Z,98163.80
2018-10-06T06:44:23.641Z,98165.98
2018-10-06T06:46:52.938Z,98169.39
2018-10-06T06:49:22.309Z,98179.59
2018-10-06T06:51:51.746Z,98174.47
2018-10-06T06:54:21.109Z,98174.04
2018-10-06T06:56:50.625Z,98176.56
2018-10-06T06:59:20.002Z,98181.61
2018-10-06T07:01:49.494Z,98178.63
2018-10-06T07:04:18.877Z,98177.34
2018-10-06T07:06:48.258Z,98179.09
2018-10-06T07:09:17.634Z,98169.84
2018-10-06T07:11:47.078Z,98163.99
2018-10-06T07:14:16.445Z,98158.94
2018-10-06T07:16:45.871Z,98152.64
2018-10-06T07:19:15.230Z,98151.39
2018-10-06T07:21:44.662Z,98154.80
2018-10-06T07:24:14.030Z,98150.13
2018-10-06T07:26:43.493Z,98147.53
2018-10-06T07:29:12.862Z,98151.77
2018-10-06T07:31:42.316Z,98147.13
2018-10-06T07:34:11.715Z,98151.39
2018-10-06T07:36:41.202Z,98156.48
2018-10-06T07:39:10.609Z,98154.78
2018-10-06T07:41:40.028Z,98155.21
2018-10-06T07:44:09.395Z,98153.05
2018-10-06T07:46:38.815Z,98149.61
2018-10-06T07:49:08.230Z,98149.56
2018-10-06T07:51:37.652Z,98146.55
2018-10-06T07:54:07.010Z,98146.01
2018-10-06T07:56:36.421Z,98142.95
2018-10-06T07:59:05.933Z,98142.31
2018-10-06T08:01:35.335Z,98137.97
2018-10-06T08:04:04.713Z,98122.44
2018-10-06T08:06:34.212Z,98118.89
2018-10-06T08:09:03.560Z,98115.37
2018-10-06T08:11:33.059Z,98109.55
2018-10-06T08:14:02.429Z,98113.17
2018-10-06T08:16:31.834Z,98100.25
2018-10-06T08:19:01.210Z,98094.73
2018-10-06T08:21:30.635Z,98095.52
2018-10-06T08:24:00.157Z,98091.05
2018-10-06T08:26:29.562Z,98084.84
2018-10-06T08:28:58.908Z,98074.47
2018-10-06T08:31:28.356Z,98068.51
2018-10-06T08:33:57.717Z,98058.80
2018-10-06T08:36:27.152Z,98049.22
2018-10-06T08:38:56.708Z,98043.84
2018-10-06T08:41:26.160Z,98041.12
2018-10-06T08:43:55.612Z,98040.78
2018-10-06T08:46:24.966Z,98033.60
2018-10-06T08:48:54.390Z,98043.13
2018-10-06T08:51:23.764Z,98037.95
2018-10-06T08:53:53.224Z,98047.10
2018-10-06T08:56:22.808Z,98031.73
2018-10-06T08:58:52.438Z,98020.81
2018-10-06T09:01:22.149Z,98011.30
2018-10-06T09:03:51.521Z,98015.97
2018-10-06T09:06:20.913Z,98013.57
2018-10-06T09:08:50.453Z,98013.30
2018-10-06T09:11:19.939Z,98007.64
2018-10-06T09:13:49.311Z,98003.84
2018-10-06T09:16:18.727Z,98004.45
2018-10-06T09:18:48.118Z,97986.42
2018-10-06T09:21:17.537Z,97977.84
2018-10-06T09:23:46.913Z,97970.85
2018-10-06T09:26:16.359Z,97973.47
2018-10-06T09:28:45.843Z,97972.36
2018-10-06T09:31:15.248Z,97967.81
2018-10-06T09:33:44.633Z,97966.18
2018-10-06T09:36:14.061Z,97961.19
2018-10-06T09:38:43.439Z,97956.14
2018-10-06T09:41:12.821Z,97943.58
2018-10-06T09:43:42.246Z,97933.14
2018-10-06T09:46:11.650Z,97930.00
2018-10-06T09:48:41.041Z,97940.71
2018-10-06T09:51:10.463Z,97932.11
2018-10-06T09:53:39.870Z,97930.59
2018-10-06T09:56:09.255Z,97925.31
2018-10-06T09:58:38.645Z,97917.08
2018-10-06T10:01:13.461Z,97916.33
2018-10-06T10:03:48.258Z,97897.73
2018-10-06T10:06:17.665Z,97891.27
2018-10-06T10:08:47.181Z,97887.26
2018-10-06T10:11:16.659Z,97882.02
2018-10-06T10:13:46.065Z,97884.73
2018-10-06T10:16:15.484Z,97873.45
2018-10-06T10:18:44.879Z,97882.81
2018-10-06T10:21:14.382Z,97872.33
2018-10-06T10:23:43.827Z,97873.42
2018-10-06T10:26:13.273Z,97862.22
2018-10-06T10:28:42.719Z,97862.42
2018-10-06T10:31:12.198Z,97858.13
2018-10-06T10:33:41.612Z,97842.98
2018-10-06T10:36:11.030Z,97847.75
2018-10-06T10:38:40.471Z,97842.25
2018-10-06T10:41:09.970Z,97836.87
2018-10-06T10:43:39.364Z,97837.75
2018-10-06T10:46:08.835Z,97823.16
2018-10-06T10:48:38.258Z,97829.69
2018-10-06T10:51:07.701Z,97840.84
2018-10-06T10:53:37.149Z,97800.80
2018-10-06T10:56:06.640Z,97759.39
2018-10-06T10:58:36.038Z,97758.52
2018-10-06T11:01:05.720Z,97748.48
2018-10-06T11:03:35.082Z,97738.79
2018-10-06T11:06:04.516Z,97740.27
2018-10-06T11:08:34.095Z,97740.55
2018-10-06T11:11:03.600Z,97729.73
2018-10-06T11:13:32.909Z,97689.55
2018-10-06T11:16:02.350Z,97673.81
2018-10-06T11:18:31.726Z,97645.05
2018-10-06T11:21:01.144Z,97601.63
2018-10-06T11:23:30.500Z,97607.67
2018-10-06T11:25:59.950Z,97635.64
2018-10-06T11:28:29.316Z,97664.28
2018-10-06T11:30:58.751Z,97669.38
2018-10-06T11:33:28.129Z,97676.87
2018-10-06T11:35:57.572Z,97701.73
2018-10-06T11:38:26.944Z,97699.47
2018-10-06T11:40:56.333Z,97719.94
2018-10-06T11:43:25.731Z,97723.91
2018-10-06T11:45:55.155Z,97696.84
2018-10-06T11:48:24.525Z,97693.96
2018-10-06T11:50:53.946Z,97664.98
2018-10-06T11:53:23.300Z,97654.77
2018-10-06T11:55:52.762Z,97636.84
2018-10-06T11:58:22.138Z,97621.00
2018-10-06T12:00:51.601Z,97615.61
2018-10-06T12:03:20.961Z,97611.14
2018-10-06T12:05:50.450Z,97599.69
2018-10-06T12:08:19.831Z,97592.47
2018-10-06T12:10:49.318Z,97576.92
2018-10-06T12:13:18.709Z,97561.56
2018-10-06T12:15:48.221Z,97563.48
2018-10-06T12:18:17.616Z,97558.66
2018-10-06T12:20:48.017Z,97547.02
2018-10-06T12:23:17.421Z,97541.81
2018-10-06T12:25:46.832Z,97531.69
2018-10-06T12:28:16.209Z,97511.48
2018-10-06T12:30:45.659Z,97511.74
2018-10-06T12:33:15.068Z,97521.23
2018-10-06T12:35:44.487Z,97533.48
2018-10-06T12:38:13.863Z,97522.63
2018-10-06T12:40:43.274Z,97522.31
2018-10-06T12:43:12.660Z,97508.42
2018-10-06T12:45:42.066Z,97509.75
2018-10-06T12:48:11.478Z,97512.08
2018-10-06T12:50:40.878Z,97519.59
2018-10-06T12:53:10.381Z,97502.66
2018-10-06T12:55:39.773Z,97499.73
2018-10-06T12:58:09.277Z,97496.88
2018-10-06T13:00:38.675Z,97492.21
2018-10-06T13:03:08.063Z,97484.95
2018-10-06T13:05:37.502Z,97476.08
2018-10-06T13:08:06.865Z,97477.22
2018-10-06T13:10:36.280Z,97469.72
2018-10-06T13:13:05.645Z,97466.78
2018-10-06T13:15:35.331Z,97462.89
2018-10-06T13:18:04.685Z,97460.28
2018-10-06T13:20:34.103Z,97458.55
2018-10-06T13:23:03.455Z,97459.92
2018-10-06T13:25:32.930Z,97454.10
2018-10-06T13:28:02.323Z,97453.67
2018-10-06T13:30:31.731Z,97470.77
2018-10-06T13:33:01.099Z,97456.61
2018-10-06T13:35:30.597Z,97466.98
2018-10-06T13:37:59.964Z,97463.37
2018-10-06T13:40:29.430Z,97461.06
2018-10-06T13:42:58.783Z,97465.34
2018-10-06T13:45:28.234Z,97468.88
2018-10-06T13:47:57.594Z,97466.43
2018-10-06T13:50:27.054Z,97461.20
2018-10-06T13:52:56.397Z,97461.10
2018-10-06T13:55:25.799Z,97453.77
2018-10-06T13:57:55.202Z,97451.50
2018-10-06T14:00:24.662Z,97440.36
2018-10-06T14:02:54.282Z,97442.08
2018-10-06T14:05:23.755Z,97444.59
2018-10-06T14:07:53.145Z,97438.55
2018-10-06T14:10:22.577Z,97429.68
2018-10-06T14:12:51.967Z,97424.31
2018-10-06T14:15:21.390Z,97426.67
2018-10-06T14:17:50.783Z,97427.30
2018-10-06T14:20:20.201Z,97415.66
2018-10-06T14:22:49.706Z,97415.57
2018-10-06T14:25:19.213Z,97409.31
2018-10-06T14:27:48.610Z,97400.44
2018-10-06T14:30:18.114Z,97408.05
2018-10-06T14:32:47.625Z,97404.27
2018-10-06T14:35:17.150Z,97409.56
2018-10-06T14:37:46.550Z,97407.08
2018-10-06T14:40:15.939Z,97403.09
2018-10-06T14:42:45.469Z,97402.92
2018-10-06T14:45:14.859Z,97405.12
2018-10-06T14:47:44.490Z,97406.88
2018-10-06T14:50:13.740Z,97404.48
2018-10-06T14:52:43.146Z,97406.27
2018-10-06T14:55:12.551Z,97407.82
2018-10-06T14:57:42.058Z,97414.08
2018-10-06T15:00:11.452Z,97409.48
2018-10-06T15:02:40.829Z,97408.66
2018-10-06T15:05:10.324Z,97403.70
2018-10-06T15:07:39.685Z,97396.83
2018-10-06T15:10:09.174Z,97402.10
2018-10-06T15:12:38.534Z,97395.58
2018-10-06T15:15:07.962Z,97394.70
2018-10-06T15:17:37.318Z,97394.42
2018-10-06T15:20:06.737Z,97387.47
2018-10-06T15:22:36.099Z,97393.53
2018-10-06T15:25:05.570Z,97401.34
2018-10-06T15:27:34.941Z,97395.85
2018-10-06T15:30:04.319Z,97401.33
2018-10-06T15:32:33.758Z,97390.46
2018-10-06T15:35:03.131Z,97396.56
2018-10-06T15:37:32.567Z,97392.96
2018-10-06T15:40:01.947Z,97397.20
2018-10-06T15:42:31.300Z,97393.78
2018-10-06T15:45:00.783Z,97393.08
2018-10-06T15:47:30.145Z,97397.86
2018-10-06T15:49:59.569Z,97395.08
2018-10-06T15:52:28.945Z,97393.36
2018-10-06T15:54:58.398Z,97393.85
2018-10-06T15:57:27.753Z,97392.73
2018-10-06T15:59:57.187Z,97393.28
2018-10-06T16:02:26.596Z,97395.67
2018-10-06T16:04:55.845Z,97394.94
2018-10-06T16:07:25.297Z,97392.81
2018-10-06T16:09:54.645Z,97395.22
2018-10-06T16:12:24.142Z,97394.20
2018-10-06T16:14:53.474Z,97397.23
2018-10-06T16:17:23.366Z,97394.53
2018-10-06T16:19:52.733Z,97403.14
2018-10-06T16:22:22.158Z,97397.67
2018-10-06T16:24:51.527Z,97409.33
2018-10-06T16:27:20.983Z,97415.19
2018-10-06T16:29:50.330Z,97416.44
2018-10-06T16:32:19.763Z,97416.44
2018-10-06T16:34:49.156Z,97416.30
2018-10-06T16:37:18.546Z,97418.02
2018-10-06T16:39:47.898Z,97422.55
2018-10-06T16:42:17.370Z,97425.32
2018-10-06T16:44:46.762Z,97429.88
2018-10-06T16:47:16.191Z,97426.02
2018-10-06T16:49:45.607Z,97432.91
2018-10-06T16:52:15.106Z,97437.36
2018-10-06T16:54:44.501Z,97440.67
2018-10-06T16:57:14.027Z,97444.62
2018-10-06T16:59:43.451Z,97447.39
2018-10-06T17:02:12.903Z,97452.53
2018-10-06T17:04:42.251Z,97456.98
2018-10-06T17:07:11.706Z,97464.56
2018-10-06T17:09:41.066Z,97465.20
2018-10-06T17:12:10.498Z,97469.22
2018-10-06T17:14:39.871Z,97474.53
2018-10-06T17:17:09.263Z,97482.47
2018-10-06T17:19:38.638Z,97481.70
2018-10-06T17:22:08.107Z,97482.16
2018-10-06T17:24:37.487Z,97491.83
2018-10-06T17:27:07.227Z,97494.37
2018-10-06T17:29:36.763Z,97491.11
2018-10-06T17:32:06.213Z,97484.05
2018-10-06T17:34:35.589Z,97489.68
2018-10-06T17:37:04.970Z,97493.71
2018-10-06T17:39:34.469Z,97496.17
2018-10-06T17:42:03.847Z,97491.37
2018-10-06T17:44:33.229Z,97487.23
2018-10-06T17:47:02.759Z,97498.79
2018-10-06T17:49:32.150Z,97502.88
2018-10-06T17:52:01.514Z,97511.23
2018-10-06T17:54:30.930Z,97516.58
2018-10-06T17:57:00.367Z,97521.25
2018-10-06T17:59:29.821Z,97529.77
2018-10-06T18:01:59.200Z,97531.60
2018-10-06T18:04:28.720Z,97529.30
2018-10-06T18:06:58.173Z,97537.92
2018-10-06T18:09:27.605Z,97535.33
2018-10-06T18:11:57.002Z,97541.47
2018-10-06T18:14:26.592Z,97541.47
2018-10-06T18:16:56.024Z,97547.03
2018-10-06T18:19:25.443Z,97543.74
2018-10-06T18:21:54.997Z,97557.79
2018-10-06T18:24:24.638Z,97569.02
2018-10-06T18:26:54.010Z,97566.27
2018-10-06T18:29:24.480Z,97564.85
2018-10-06T18:31:53.852Z,97569.79
2018-10-06T18:34:23.352Z,97570.34
2018-10-06T18:36:52.836Z,97579.56
2018-10-06T18:39:22.148Z,97590.86
2018-10-06T18:41:51.607Z,97612.84
2018-10-06T18:44:21.009Z,97605.97
2018-10-06T18:46:50.503Z,97607.20
2018-10-06T18:49:19.959Z,97610.82
2018-10-06T18:51:49.405Z,97610.07
2018-10-06T18:54:18.806Z,97610.38
2018-10-06T18:56:48.325Z,97620.26
2018-10-06T18:59:17.727Z,97621.25
2018-10-06T19:01:47.144Z,97619.44
2018-10-06T19:04:16.735Z,97622.23
2018-10-06T19:06:46.018Z,97638.27
2018-10-06T19:09:15.509Z,97622.34
2018-10-06T19:11:44.894Z,97637.44
2018-10-06T19:14:14.357Z,97640.09
2018-10-06T19:16:43.813Z,97641.16
2018-10-06T19:19:13.193Z,97638.41
2018-10-06T19:21:42.619Z,97634.32
2018-10-06T19:24:12.001Z,97634.73
2018-10-06T19:26:41.407Z,97644.58
2018-10-06T19:29:10.780Z,97640.67
2018-10-06T19:31:40.210Z,97650.08
2018-10-06T19:34:09.635Z,97648.05
2018-10-06T19:36:38.999Z,97661.41
2018-10-06T19:39:09.263Z,97656.39
2018-10-06T19:41:39.105Z,97664.81
2018-10-06T19:44:08.560Z,97665.62
2018-10-06T19:46:38.087Z,97667.63
2018-10-06T19:49:07.460Z,97668.14
2018-10-06T19:51:36.876Z,97685.26
2018-10-06T19:54:06.251Z,97691.71
2018-10-06T19:56:35.662Z,97693.00
2018-10-06T19:59:05.036Z,97700.79
2018-10-06T20:01:34.410Z,97700.86
2018-10-06T20:04:03.908Z,97701.73
2018-10-06T20:06:33.294Z,97701.23
2018-10-06T20:09:02.686Z,97705.91
2018-10-06T20:11:32.050Z,97710.20
2018-10-06T20:14:01.459Z,97731.53
2018-10-06T20:16:30.885Z,97742.09
2018-10-06T20:19:00.323Z,97749.86
2018-10-06T20:21:29.697Z,97752.97
2018-10-06T20:23:59.081Z,97761.09
2018-10-06T20:26:28.483Z,97768.27
2018-10-06T20:28:57.894Z,97775.83
2018-10-06T20:31:27.248Z,97796.26
2018-10-06T20:33:56.730Z,97791.94
2018-10-06T20:36:26.075Z,97779.88
2018-10-06T20:38:55.510Z,97780.36
2018-10-06T20:41:24.870Z,97769.80
2018-10-06T20:43:54.244Z,97768.42
2018-10-06T20:46:23.724Z,97758.73
2018-10-06T20:48:53.100Z,97768.84
2018-10-06T20:51:22.467Z,97762.80
2018-10-06T20:53:51.829Z,97775.98
2018-10-06T20:56:21.263Z,97776.81
2018-10-06T20:58:50.681Z,97780.44
2018-10-06T21:01:20.084Z,97784.95
2018-10-06T21:03:49.530Z,97799.22
2018-10-06T21:06:18.923Z,97807.45
2018-10-06T21:08:48.285Z,97814.55
2018-10-06T21:11:17.646Z,97807.75
2018-10-06T21:13:47.043Z,97806.20
2018-10-06T21:16:16.417Z,97805.19
2018-10-06T21:18:45.859Z,97794.50
2018-10-06T21:21:15.244Z,97800.23
2018-10-06T21:23:44.643Z,97802.28
2018-10-06T21:26:14.026Z,97798.27
2018-10-06T21:28:43.491Z,97790.94
2018-10-06T21:31:12.910Z,97796.61
2018-10-06T21:33:42.281Z,97785.68
2018-10-06T21:36:11.672Z,97777.25
2018-10-06T21:38:41.073Z,97766.88
2018-10-06T21:41:10.566Z,97771.70
2018-10-06T21:43:39.951Z,97772.70
2018-10-06T21:46:09.386Z,97756.09
2018-10-06T21:48:38.745Z,97743.64
2018-10-06T21:51:08.192Z,97742.04
2018-10-06T21:53:37.562Z,97728.73
2018-10-06T21:56:07.073Z,97724.88
2018-10-06T21:58:36.438Z,97732.14
2018-10-06T22:01:10.559Z,97739.00
2018-10-06T22:03:40.654Z,97744.87
2018-10-06T22:06:10.255Z,97746.52
2018-10-06T22:08:39.865Z,97745.83
2018-10-06T22:11:09.365Z,97750.31
2018-10-06T22:13:38.764Z,97742.45
2018-10-06T22:16:08.385Z,97742.47
2018-10-06T22:18:37.778Z,97740.61
2018-10-06T22:21:07.478Z,97731.05
2018-10-06T22:23:36.847Z,97729.14
2018-10-06T22:26:06.605Z,97723.88
2018-10-06T22:28:35.998Z,97719.25
2018-10-06T22:31:05.471Z,97722.37
2018-10-06T22:33:34.878Z,97720.71
2018-10-06T22:36:04.395Z,97720.80
2018-10-06T22:38:33.735Z,97718.81
2018-10-06T22:41:03.121Z,97714.75
2018-10-06T22:43:32.673Z,97716.23
2018-10-06T22:46:02.042Z,97712.14
2018-10-06T22:48:31.515Z,97711.12
2018-10-06T22:51:00.968Z,97705.53
2018-10-06T22:53:30.422Z,97704.67
2018-10-06T22:55:59.834Z,97710.66
2018-10-06T22:58:29.246Z,97707.14
2018-10-06T23:00:58.651Z,97707.64
2018-10-06T23:03:28.057Z,97711.55
2018-10-06T23:05:57.577Z,97704.84
2018-10-06T23:08:27.015Z,97708.20
2018-10-06T23:10:56.420Z,97708.75
2018-10-06T23:13:25.814Z,97709.23
2018-10-06T23:15:55.323Z,97714.30
2018-10-06T23:18:24.740Z,97727.45
2018-10-06T23:20:54.523Z,97732.05
2018-10-06T23:23:23.917Z,97728.52
2018-10-06T23:25:53.421Z,97720.04
2018-10-06T23:28:23.014Z,97719.32
2018-10-06T23:30:52.514Z,97724.61
2018-10-06T23:33:21.985Z,97729.52
2018-10-06T23:35:51.383Z,97732.67
2018-10-06T23:38:20.790Z,97733.59
2018-10-06T23:40:50.177Z,97736.08
2018-10-06T23:43:19.651Z,97727.97
2018-10-06T23:45:49.025Z,97728.59
2018-10-06T23:48:18.538Z,97738.03
2018-10-06T23:50:47.931Z,97752.63
2018-10-06T23:53:17.448Z,97776.91
2018-10-06T23:55:46.882Z,97773.69
2018-10-06T23:58:16.333Z,97775.10
